EHWO/WOE METAR and TAF weather

Enter ICAO airport designator
Station Type Date Time Source
EHWO METAR 2021/07/26 17:11 UTC NOAA

EHWO 261711Z AUTO VRB02KT 9999 -TSRA FEW004 FEW015CB BKN019 BKN048 18/17 Q1010 WHT


Station Type Date Time Source
EHWO Decoded METAR 2021/07/26 17:11 UTC NOAA

Woensdrecht, Netherlands (EHWO) 51-27N 004-20E 17M
Jul 26, 2021 - 01:11 PM EDT / 2021.07.26 1711 UTC
Wind: Variable at 2 MPH (2 KT):0
Visibility: greater than 7 mile(s):0
Sky conditions: mostly cloudy
Weather: light rain with thunder; Cumulonimbus clouds observed
Temperature: 64 F (18 C)
Dew Point: 62 F (17 C)
Relative Humidity: 93%
Pressure (altimeter): 29.83 in. Hg (1010 hPa)
ob: EHWO 261711Z AUTO VRB02KT 9999 -TSRA FEW004 FEW015CB BKN019 BKN048 18/17 Q1010 WHT
cycle: 17

Station Type Date Time Source
EHWO TAF 2021/07/26 09:48 UTC NOAA

TAF TAF EHWO 261339Z 2609/2621 CNL

Example: see airport list